Time;durP1;ratioP1;P1;durP2;ratioP2;P2;SDS_P1;SDS_P2;PMS_P1;PMS_P2;Temp;Humidity;BMP_temperature;BMP_pressure;BME280_temperature;BME280_humidity;BME280_pressure;Samples;Min_cycle;Max_cycle;Signal;HPM_P1;HPM_P2
2023/04/11 00:02:37;;;;;;;7.37;5.37;;;1.90;99.90;2.60;96985.00;;;;5088188;28;20450;-71
2023/04/11 00:05:30;;;;;;;5.63;4.47;;;1.80;99.90;2.20;96984.00;;;;5085472;28;20413;-71
2023/04/11 00:08:18;;;;;;;9.87;4.33;;;1.80;99.90;2.00;96978.00;;;;5089283;28;20425;-72
2023/04/11 00:11:07;;;;;;;5.67;4.63;;;1.70;99.90;2.20;96965.00;;;;5090384;28;20992;-72
2023/04/11 00:13:57;;;;;;;8.13;5.77;;;1.60;99.90;2.70;96964.00;;;;5090230;28;20435;-72
2023/04/11 00:16:48;;;;;;;6.10;4.27;;;1.60;99.90;2.80;96968.00;;;;5094173;28;20420;-71
2023/04/11 00:19:37;;;;;;;6.00;5.30;;;1.70;99.90;2.60;96960.00;;;;5088138;28;20953;-72
2023/04/11 00:22:27;;;;;;;11.33;4.40;;;1.90;99.90;1.70;96958.00;;;;5073659;28;20457;-72
2023/04/11 00:25:16;;;;;;;6.03;5.13;;;1.60;99.90;1.70;96945.00;;;;5082285;28;20508;-68
2023/04/11 00:28:05;;;;;;;6.97;5.13;;;1.50;99.90;2.10;96954.00;;;;5084096;28;20434;-72
2023/04/11 00:30:53;;;;;;;9.50;4.67;;;1.40;99.90;2.50;96949.00;;;;5075504;28;20585;-72
2023/04/11 00:33:42;;;;;;;6.67;5.43;;;1.40;99.90;2.50;96949.00;;;;5080840;28;20488;-72
2023/04/11 00:36:31;;;;;;;6.57;4.87;;;1.50;99.90;2.30;96947.00;;;;5082543;28;20820;-72
2023/04/11 00:39:22;;;;;;;5.80;5.20;;;1.80;99.90;2.20;96933.00;;;;5078893;28;20437;-72
2023/04/11 00:42:11;;;;;;;5.23;4.00;;;1.30;99.90;2.30;96935.00;;;;5084421;28;20538;-72
2023/04/11 00:45:00;;;;;;;6.77;5.50;;;2.00;99.90;2.50;96929.00;;;;5083702;28;20932;-72
2023/04/11 00:47:50;;;;;;;6.53;4.93;;;2.10;99.90;2.40;96934.00;;;;5083273;28;20426;-71
2023/04/11 00:50:41;;;;;;;6.07;4.70;;;1.70;99.90;1.90;96925.00;;;;5080673;28;20502;-72
2023/04/11 00:53:32;;;;;;;9.90;5.53;;;1.80;99.90;2.10;96922.00;;;;5082416;28;20515;-72
2023/04/11 00:56:22;;;;;;;7.10;4.20;;;1.60;99.90;2.20;96908.00;;;;5081406;28;20418;-69
2023/04/11 00:59:11;;;;;;;4.57;4.00;;;1.90;99.90;1.80;96900.00;;;;5081525;28;20481;-72
2023/04/11 01:02:01;;;;;;;5.20;4.07;;;1.50;99.90;1.40;96898.00;;;;5083634;28;20485;-72
2023/04/11 01:04:50;;;;;;;3.80;3.40;;;2.10;99.90;1.30;96890.00;;;;5081017;28;20783;-72
2023/04/11 01:07:43;;;;;;;6.63;5.33;;;0.90;99.90;1.60;96881.00;;;;5081771;28;20494;-71
2023/04/11 01:10:32;;;;;;;4.83;3.97;;;1.50;99.90;1.60;96893.00;;;;5078878;28;20444;-71
2023/04/11 01:13:22;;;;;;;4.23;3.77;;;1.40;99.90;1.40;96885.00;;;;5083800;28;20429;-70
2023/04/11 01:16:11;;;;;;;5.53;4.13;;;1.20;99.90;1.50;96879.00;;;;5083827;28;20517;-71
2023/04/11 01:19:00;;;;;;;8.27;5.07;;;1.00;99.90;1.70;96889.00;;;;5082549;28;20465;-71
2023/04/11 01:21:50;;;;;;;7.27;5.17;;;1.00;99.90;2.00;96886.00;;;;5087091;28;20443;-72
2023/04/11 01:24:40;;;;;;;9.83;5.53;;;1.00;99.90;2.20;96870.00;;;;5088058;28;20487;-72
2023/04/11 01:27:29;;;;;;;8.17;5.20;;;1.10;99.90;2.20;96874.00;;;;5077169;28;21104;-71
2023/04/11 01:30:18;;;;;;;8.47;5.60;;;2.20;99.90;2.50;96870.00;;;;5071183;28;20961;-71
2023/04/11 01:33:07;;;;;;;5.77;4.60;;;1.30;99.90;2.60;96872.00;;;;5076082;28;20426;-71
2023/04/11 01:35:55;;;;;;;6.30;5.70;;;1.30;99.90;2.50;96864.00;;;;5088852;28;20499;-71
2023/04/11 01:38:44;;;;;;;6.63;4.93;;;1.40;99.90;2.40;96856.00;;;;5086050;28;20858;-71
2023/04/11 01:41:34;;;;;;;5.50;4.97;;;1.50;99.90;2.20;96863.00;;;;5085678;28;20460;-71
2023/04/11 01:44:24;;;;;;;7.33;5.40;;;1.40;99.90;1.90;96853.00;;;;5087705;28;20935;-71
2023/04/11 01:47:13;;;;;;;7.80;4.80;;;1.40;99.90;1.80;96858.00;;;;5086054;28;20441;-67
2023/04/11 01:50:01;;;;;;;3.37;2.97;;;1.00;99.90;1.50;96860.00;;;;5087382;28;20516;-71
2023/04/11 01:52:51;;;;;;;5.67;5.00;;;1.00;99.90;1.60;96851.00;;;;5085953;28;20422;-67
2023/04/11 01:55:40;;;;;;;7.00;5.30;;;1.10;99.90;1.80;96846.00;;;;5084046;28;20425;-71
2023/04/11 01:58:30;;;;;;;9.20;5.63;;;1.10;99.90;2.10;96833.00;;;;5087256;28;20484;-71
2023/04/11 02:01:20;;;;;;;6.13;4.70;;;1.40;99.90;2.40;96839.00;;;;5087138;28;20978;-71
2023/04/11 02:04:09;;;;;;;6.33;5.30;;;1.00;99.90;2.10;96832.00;;;;5088473;28;20433;-70
2023/04/11 02:06:57;;;;;;;6.27;4.93;;;1.20;99.90;2.00;96820.00;;;;5084972;28;20437;-68
2023/04/11 02:09:46;;;;;;;5.37;4.27;;;1.30;99.90;1.60;96809.00;;;;5083694;28;20512;-68
2023/04/11 02:12:35;;;;;;;4.83;3.97;;;1.20;99.90;1.20;96797.00;;;;5088471;28;20445;-71
2023/04/11 02:15:25;;;;;;;3.63;2.73;;;1.00;99.90;1.10;96800.00;;;;5088691;28;20422;-71
2023/04/11 02:18:14;;;;;;;5.40;4.50;;;0.80;99.90;0.90;96805.00;;;;5087904;28;20839;-71
2023/04/11 02:21:02;;;;;;;5.50;4.90;;;0.50;99.90;1.00;96785.00;;;;5080512;28;21004;-67
2023/04/11 02:23:51;;;;;;;5.10;4.17;;;0.80;99.90;1.40;96786.00;;;;5085657;28;20578;-71
2023/04/11 02:26:41;;;;;;;6.10;4.90;;;0.40;99.90;1.50;96793.00;;;;5082970;28;20415;-67
2023/04/11 02:29:30;;;;;;;5.10;4.53;;;0.60;99.90;1.70;96782.00;;;;5084599;28;20490;-70
2023/04/11 02:32:20;;;;;;;6.70;4.93;;;0.60;99.90;1.90;96798.00;;;;5086187;28;20999;-71
2023/04/11 02:35:09;;;;;;;5.43;4.50;;;0.90;99.90;1.90;96785.00;;;;5086273;28;20425;-71
2023/04/11 02:37:58;;;;;;;6.83;5.10;;;1.00;99.90;2.20;96779.00;;;;5087215;28;20529;-71
2023/04/11 02:40:47;;;;;;;5.97;4.63;;;1.10;99.90;2.20;96775.00;;;;5083416;28;20468;-71
2023/04/11 02:43:36;;;;;;;6.83;4.90;;;1.20;99.90;2.40;96767.00;;;;5082699;28;20479;-71
2023/04/11 02:46:24;;;;;;;8.03;4.97;;;1.10;99.90;2.20;96768.00;;;;5081767;28;20944;-69
2023/04/11 02:49:15;;;;;;;6.53;4.87;;;1.30;99.90;2.50;96784.00;;;;5081356;28;20495;-72
2023/04/11 02:52:04;;;;;;;5.87;5.27;;;1.20;99.90;2.60;96770.00;;;;5077259;28;20460;-71
2023/04/11 02:54:52;;;;;;;4.93;4.33;;;2.30;99.90;2.50;96770.00;;;;5078579;28;20445;-71
2023/04/11 02:57:41;;;;;;;6.57;5.93;;;;;2.20;96766.00;;;;5077414;28;20510;-71
2023/04/11 03:00:31;;;;;;;7.07;5.07;;;;;1.80;96757.00;;;;5081734;28;20429;-67
2023/04/11 03:03:20;;;;;;;5.53;5.03;;;;;1.60;96764.00;;;;5081966;28;20462;-68
2023/04/11 03:06:10;;;;;;;6.83;5.23;;;;;1.70;96764.00;;;;5082083;28;20454;-71
2023/04/11 03:08:59;;;;;;;7.03;4.53;;;;;1.80;96741.00;;;;5079975;28;20418;-68
2023/04/11 03:11:48;;;;;;;5.70;4.77;;;;;1.70;96725.00;;;;5084793;28;20494;-71
2023/04/11 03:14:37;;;;;;;7.20;5.37;;;;;1.80;96725.00;;;;5081713;28;20438;-71
2023/04/11 03:17:26;;;;;;;4.27;3.87;;;;;1.50;96717.00;;;;5083460;28;20421;-71
2023/04/11 03:20:18;;;;;;;5.40;4.90;;;;;1.60;96701.00;;;;5077551;28;20465;-69
2023/04/11 03:23:08;;;;;;;3.30;3.00;;;;;1.10;96702.00;;;;5078435;28;20429;-70
2023/04/11 03:25:59;;;;;;;4.23;3.23;;;;;1.30;96706.00;;;;5084230;28;20507;-71
2023/04/11 03:28:48;;;;;;;4.73;3.63;;;;;1.40;96695.00;;;;5082203;28;20432;-70
2023/04/11 03:31:37;;;;;;;6.93;4.93;;;;;1.50;96701.00;;;;5082622;28;20519;-72
2023/04/11 03:34:26;;;;;;;4.23;3.93;;;;;1.50;96688.00;;;;5083100;28;20958;-68
2023/04/11 03:37:15;;;;;;;7.77;4.87;;;;;1.70;96700.00;;;;5079369;28;20430;-69
2023/04/11 03:40:08;;;;;;;4.20;3.80;;;;;1.80;96710.00;;;;5071855;28;20453;-71
2023/04/11 03:43:00;;;;;;;7.53;5.10;;;;;1.90;96707.00;;;;5080076;28;20526;-71
2023/04/11 03:45:52;;;;;;;6.27;3.83;;;;;2.10;96712.00;;;;5075970;28;20422;-71
2023/04/11 03:48:41;;;;;;;6.60;3.73;;;;;1.80;96706.00;;;;5081973;28;20426;-71
2023/04/11 03:51:30;;;;;;;8.50;6.63;;;;;1.90;96711.00;;;;5077641;28;20401;-68
2023/04/11 03:54:19;;;;;;;8.20;5.77;;;;;2.30;96704.00;;;;5087261;28;20616;-68
2023/04/11 03:57:10;;;;;;;6.33;5.70;;;;;2.10;96704.00;;;;5086154;28;20597;-69
2023/04/11 03:59:59;;;;;;;8.77;5.60;;;;;2.00;96695.00;;;;5086496;28;20472;-69
2023/04/11 04:02:48;;;;;;;4.87;4.13;;;;;1.60;96693.00;;;;5083290;28;20844;-70
2023/04/11 04:05:37;;;;;;;6.83;5.73;;;;;1.80;96690.00;;;;5088855;28;20479;-67
2023/04/11 04:08:26;;;;;;;7.33;5.20;;;;;1.90;96683.00;;;;5087868;28;20442;-71
2023/04/11 04:11:15;;;;;;;7.53;5.33;;;;;1.90;96681.00;;;;5087648;28;20479;-71
2023/04/11 04:14:06;;;;;;;7.73;5.30;;;;;2.20;96670.00;;;;5073968;28;20483;-71
2023/04/11 04:16:55;;;;;;;5.73;4.73;;;;;2.10;96675.00;;;;5082000;28;20827;-71
2023/04/11 04:19:44;;;;;;;1.20;1.10;;;;;1.30;96664.00;;;;5083283;28;20465;-70
2023/04/11 04:22:33;;;;;;;9.60;5.47;;;;;1.50;96668.00;;;;5080736;28;21014;-68
2023/04/11 04:25:23;;;;;;;5.00;4.17;;;;;1.40;96669.00;;;;5076721;28;20434;-70
2023/04/11 04:28:13;;;;;;;6.00;5.03;;;;;1.60;96666.00;;;;5080580;28;20436;-71
2023/04/11 04:31:03;;;;;;;6.87;5.33;;;;;1.70;96675.00;;;;5087401;28;20450;-71
2023/04/11 04:33:52;;;;;;;9.00;6.20;;;;;2.30;96673.00;;;;5080390;28;20783;-71
2023/04/11 04:36:46;;;;;;;8.07;5.50;;;;;2.10;96659.00;;;;5083264;28;20429;-68
2023/04/11 04:39:36;;;;;;;9.20;5.83;;;;;2.20;96661.00;;;;5080583;28;20461;-71
2023/04/11 04:42:27;;;;;;;4.80;4.10;;;;;2.10;96667.00;;;;5081877;28;20444;-71
2023/04/11 04:45:16;;;;;;;8.57;4.33;;;;;2.00;96650.00;;;;5078723;28;20441;-70
2023/04/11 04:48:06;;;;;;;4.77;4.17;;;;;2.30;96663.00;;;;5085460;28;20421;-70
2023/04/11 04:50:55;;;;;;;7.10;5.03;;;;;2.50;96667.00;;;;5086612;28;20453;-71
2023/04/11 04:53:45;;;;;;;7.53;5.60;;;;;2.50;96668.00;;;;5082578;28;20878;-70
2023/04/11 04:56:34;;;;;;;4.77;3.63;;;;;2.30;96661.00;;;;5088948;28;20441;-71
2023/04/11 04:59:23;;;;;;;5.60;4.80;;;;;2.50;96665.00;;;;5083934;28;20535;-70
2023/04/11 05:02:12;;;;;;;4.20;3.80;;;;;2.30;96666.00;;;;5074927;28;20878;-70
2023/04/11 05:05:03;;;;;;;7.97;6.03;;;;;2.70;96674.00;;;;5086134;28;20429;-72
2023/04/11 05:07:52;;;;;;;4.77;3.97;;;;;2.70;96654.00;;;;5088350;28;20510;-71
2023/04/11 05:10:41;;;;;;;6.77;5.97;;;;;2.90;96663.00;;;;5087242;28;20457;-71
2023/04/11 05:13:31;;;;;;;6.07;5.17;;;;;2.70;96656.00;;;;5084648;28;20438;-71
2023/04/11 05:16:20;;;;;;;5.90;4.97;;;;;2.70;96668.00;;;;5089532;28;20928;-71
2023/04/11 05:19:09;;;;;;;8.00;4.93;;;;;2.60;96656.00;;;;5090420;28;20445;-71
2023/04/11 05:22:00;;;;;;;5.43;4.90;;;;;2.60;96651.00;;;;5091942;28;20469;-72
2023/04/11 05:24:49;;;;;;;6.40;4.60;;;;;2.60;96646.00;;;;5088124;28;20426;-69
2023/04/11 05:27:38;;;;;;;7.90;5.97;;;;;3.10;96642.00;;;;5084695;28;20433;-72
2023/04/11 05:30:27;;;;;;;9.10;5.67;;;;;3.50;96632.00;;;;5079586;28;20437;-70
2023/04/11 05:33:16;;;;;;;8.87;5.83;;;;;3.60;96639.00;;;;5091690;28;20442;-72
2023/04/11 05:36:06;;;;;;;9.17;5.53;;;;;3.50;96631.00;;;;5093193;28;20429;-72
2023/04/11 05:38:56;;;;;;;8.27;6.00;;;;;3.90;96629.00;;;;5081493;28;20508;-70
2023/04/11 05:41:45;;;;;;;16.17;9.03;;;;;4.10;96613.00;;;;5085184;28;20445;-71
2023/04/11 05:44:34;;;;;;;9.80;7.27;;;;;4.00;96610.00;;;;5083957;28;20422;-70
2023/04/11 05:47:24;;;;;;;7.67;6.10;;;;;3.90;96623.00;;;;5087236;28;20422;-73
2023/04/11 05:50:14;;;;;;;14.70;5.83;;;;;3.40;96604.00;;;;5087344;28;20433;-72
2023/04/11 05:53:03;;;;;;;11.07;6.77;;;;;4.10;96604.00;;;;5087434;28;20495;-72
2023/04/11 05:55:53;;;;;;;7.07;6.07;;;;;4.20;96605.00;;;;5092628;28;20441;-71
2023/04/11 05:58:43;;;;;;;9.70;6.83;;;;;4.30;96608.00;;;;5093212;28;20490;-73
2023/04/11 06:01:33;;;;;;;8.77;4.37;;;;;4.30;96606.00;;;;5092557;28;20470;-69
2023/04/11 06:04:22;;;;;;;6.80;5.53;;;;;4.40;96615.00;;;;5083908;28;20440;-71
2023/04/11 06:07:11;;;;;;;9.73;6.03;;;;;4.80;96611.00;;;;5086008;28;20465;-72
2023/04/11 06:10:00;;;;;;;8.80;6.47;;;;;4.90;96617.00;;;;5088245;28;20819;-72
2023/04/11 06:12:51;;;;;;;8.03;6.33;;;;;5.10;96623.00;;;;5089525;28;20979;-73
2023/04/11 06:15:40;;;;;;;11.20;6.70;;;;;5.50;96624.00;;;;5091165;28;20457;-72
2023/04/11 06:18:29;;;;;;;8.53;6.43;;;;;5.40;96614.00;;;;5084883;28;20827;-72
2023/04/11 06:21:18;;;;;;;10.60;6.63;;;;;5.80;96613.00;;;;5078437;28;20484;-72
2023/04/11 06:24:10;;;;;;;11.27;7.70;;;;;5.90;96616.00;;;;5075735;28;20449;-71
2023/04/11 06:26:59;;;;;;;10.63;6.63;;;;;5.90;96612.00;;;;5079853;28;20689;-70
2023/04/11 06:29:49;;;;;;;10.63;6.87;;;;;6.20;96603.00;;;;5082014;28;20433;-71
2023/04/11 06:32:38;;;;;;;13.37;7.47;;;;;6.40;96608.00;;;;5077410;28;20451;-71
2023/04/11 06:35:27;;;;;;;9.07;6.63;;;;;6.30;96606.00;;;;5075179;28;20210;-70
2023/04/11 06:38:16;;;;;;;8.77;6.37;;;;;6.40;96597.00;;;;5082022;28;20524;-73
2023/04/11 06:41:06;;;;;;;11.87;6.33;;;;;6.60;96600.00;;;;5086863;28;20256;-74
2023/04/11 06:43:55;;;;;;;168.20;89.70;;;;;6.90;96604.00;;;;5082744;28;20199;-73
2023/04/11 06:46:45;;;;;;;156.63;104.37;;;;;6.80;96597.00;;;;5081906;28;20196;-73
2023/04/11 06:49:34;;;;;;;20.77;17.07;;;;;6.80;96598.00;;;;5082823;28;20677;-73
2023/04/11 06:52:23;;;;;;;9.70;6.17;;;;;7.00;96593.00;;;;5097095;28;20276;-73
2023/04/11 06:55:14;;;;;;;14.07;6.40;;;;;7.30;96594.00;;;;5088928;28;20613;-73
2023/04/11 06:58:03;;;;;;;9.30;5.93;;;;;7.40;96603.00;;;;5088117;28;20207;-73
2023/04/11 07:00:52;;;;;;;10.70;6.23;;;;;7.50;96592.00;;;;5096960;28;20236;-73
2023/04/11 07:03:42;;;;;;;11.80;6.60;;;;;7.90;96584.00;;;;5091004;28;20261;-73
2023/04/11 07:06:32;;;;;;;6.67;4.83;;;;;8.00;96572.00;;;;5088176;28;20819;-73
2023/04/11 07:09:21;;;;;;;11.63;6.70;;;;;8.00;96577.00;;;;5088547;28;20203;-71
2023/04/11 07:12:10;;;;;;;11.30;6.37;;;;;7.90;96567.00;;;;5092007;28;20620;-73
2023/04/11 07:14:59;;;;;;;8.83;6.27;;;;;8.40;96561.00;;;;5088124;28;20199;-73
2023/04/11 07:17:48;;;;;;;8.50;6.50;;;;;8.90;96555.00;;;;5086362;28;20281;-73
2023/04/11 07:20:40;;;;;;;7.23;5.97;;;;;9.00;96556.00;;;;5078727;28;20219;-73
2023/04/11 07:23:29;;;;;;;6.63;5.13;;;;;8.60;96566.00;;;;5085076;28;20654;-73
2023/04/11 07:26:18;;;;;;;8.03;5.60;;;;;8.70;96577.00;;;;5087391;28;20211;-73
2023/04/11 07:29:08;;;;;;;8.90;5.63;;;;;9.20;96566.00;;;;5086580;28;20215;-73
2023/04/11 07:31:57;;;;;;;9.20;5.73;;;;;9.90;96568.00;;;;5081638;28;20223;-73
2023/04/11 07:34:46;;;;;;;8.50;5.63;;;;;9.90;96568.00;;;;5085816;28;20210;-73
2023/04/11 07:37:37;;;;;;;8.37;5.77;;;;;9.90;96563.00;;;;5070506;28;20230;-73
2023/04/11 07:40:26;;;;;;;7.47;5.67;;;;;9.40;96569.00;;;;5079633;28;20199;-74
2023/04/11 07:43:15;;;;;;;7.23;5.33;;;;;9.50;96574.00;;;;5074010;28;20621;-74
2023/04/11 07:46:05;;;;;;;12.97;5.90;;;;;9.50;96571.00;;;;5078523;28;20582;-72
2023/04/11 07:48:54;;;;;;;6.40;4.87;;;;;9.90;96564.00;;;;5086291;28;20202;-71
2023/04/11 07:51:43;;;;;;;8.00;4.90;;;;;9.60;96550.00;;;;5084063;28;20247;-73
2023/04/11 07:54:34;;;;;;;13.67;5.37;;;;;10.30;96550.00;;;;5079738;28;20203;-73
2023/04/11 07:57:23;;;;;;;8.50;5.07;;;;;10.20;96553.00;;;;5083414;28;20204;-73
2023/04/11 08:00:20;;;;;;;8.67;6.13;;;;;10.50;96557.00;;;;5078286;28;20215;-73
2023/04/11 08:03:11;;;;;;;7.13;5.00;;;;;10.70;96556.00;;;;5080554;28;20199;-74
2023/04/11 08:06:01;;;;;;;5.87;4.67;;;;;10.10;96555.00;;;;5079273;28;20206;-74
2023/04/11 08:08:50;;;;;;;6.37;4.73;;;;;9.80;96560.00;;;;5079371;28;20236;-73
2023/04/11 08:11:40;;;;;;;8.00;4.57;;;;;10.10;96568.00;;;;5080852;28;20765;-73
2023/04/11 08:14:29;;;;;;;7.47;5.10;;;;;10.00;96559.00;;;;5077223;28;20211;-73
2023/04/11 08:17:18;;;;;;;6.50;4.10;;;;;10.30;96558.00;;;;5081214;28;20432;-73
2023/04/11 08:20:13;;;;;;;5.53;4.40;;;;;10.00;96558.00;;;;5080558;28;20233;-74
2023/04/11 08:23:06;;;;;;;9.07;5.50;;;;;10.30;96557.00;;;;5078205;28;20799;-73
2023/04/11 08:26:01;;;;;;;7.73;4.20;;;;;10.80;96556.00;;;;5073059;28;20199;-72
2023/04/11 08:28:56;;;;;;;5.90;4.47;;;;;10.90;96561.00;;;;5061351;28;20207;-73
2023/04/11 08:31:45;;;;;;;5.03;4.43;;;;;11.10;96554.00;;;;5081802;28;20223;-73
2023/04/11 08:34:34;;;;;;;10.67;4.63;;;;;11.20;96570.00;;;;5079258;28;20215;-73
2023/04/11 08:37:23;;;;;;;4.47;3.67;;;;;10.80;96556.00;;;;5077172;28;20211;-72
2023/04/11 08:40:13;;;;;;;4.50;4.07;;;;;11.10;96549.00;;;;5080097;28;20709;-72
2023/04/11 08:43:02;;;;;;;6.40;5.03;;;;;11.20;96557.00;;;;5078641;28;20697;-73
2023/04/11 08:45:52;;;;;;;5.43;3.73;;;;;11.20;96542.00;;;;5082397;28;20776;-72
2023/04/11 08:48:41;;;;;;;10.40;4.37;;;;;11.00;96502.00;;;;5080742;28;20689;-73
2023/04/11 08:51:30;;;;;;;8.17;4.70;;;;;10.70;96495.00;;;;5091464;28;20218;-72
2023/04/11 08:54:19;;;;;;;7.43;4.13;;;;;10.20;96505.00;;;;5082342;28;20203;-69
2023/04/11 08:57:08;;;;;;;11.37;4.10;;;;;11.00;96499.00;;;;5083545;28;20624;-71
2023/04/11 09:00:01;;;;;;;5.47;4.37;;;;;11.60;96493.00;;;;5082400;28;20471;-71
2023/04/11 09:02:58;;;;;;;6.67;3.97;;;;;11.10;96506.00;;;;5078224;28;20219;-67
2023/04/11 09:05:47;;;;;;;5.30;3.93;;;;;11.50;96514.00;;;;5083502;28;20207;-71
2023/04/11 09:08:39;;;;;;;5.23;4.07;;;;;11.70;96502.00;;;;5085444;28;20203;-71
2023/04/11 09:11:28;;;;;;;5.67;4.00;;;;;12.00;96515.00;;;;5087557;28;20304;-71
2023/04/11 09:14:17;;;;;;;5.30;3.97;;;;;12.00;96507.00;;;;5087561;28;20670;-71
2023/04/11 09:17:12;;;;;;;8.03;4.33;;;;;11.80;96496.00;;;;5087588;28;20203;-71
2023/04/11 09:20:16;;;;;;;6.40;4.10;;;;;11.80;96499.00;;;;5084776;28;20280;-71
2023/04/11 09:23:05;;;;;;;6.10;4.40;;;;;12.30;96500.00;;;;5083247;28;20235;-71
2023/04/11 09:25:54;;;;;;;3.97;3.47;;;;;11.60;96485.00;;;;5082647;28;20563;-72
2023/04/11 09:28:49;;;;;;;7.37;5.10;;;;;12.00;96492.00;;;;5078220;28;20306;-71
2023/04/11 09:31:42;;;;;;;5.73;4.30;;;;;12.40;96499.00;;;;5078577;28;20207;-72
2023/04/11 09:34:33;;;;;;;5.50;4.03;;;;;12.40;96479.00;;;;5077566;28;20200;-71
2023/04/11 09:37:23;;;;;;;4.83;4.27;;;;;12.30;96463.00;;;;5086753;28;20926;-71
2023/04/11 09:40:13;;;;;;;4.67;3.40;;;;;12.00;96476.00;;;;5088121;28;20232;-73
2023/04/11 09:43:04;;;;;;;4.77;4.27;;;;;12.30;96466.00;;;;5084508;28;20362;-72
2023/04/11 09:46:08;;;;;;;8.37;4.77;;;;;12.40;96448.00;;;;5085411;28;20204;-73
2023/04/11 09:49:00;;;;;;;7.07;3.93;;;;;12.80;96446.00;;;;5083725;28;20195;-73
2023/04/11 09:51:49;;;;;;;7.43;4.50;;;;;12.50;96432.00;;;;5080286;28;20215;-74
2023/04/11 09:54:40;;;;;;;5.53;3.50;;;;;13.00;96440.00;;;;5081468;28;20683;-75
2023/04/11 09:57:30;;;;;;;5.17;4.20;;;;;12.90;96444.00;;;;5087154;28;20207;-73
2023/04/11 10:00:20;;;;;;;7.23;3.37;;;;;12.60;96451.00;;;;5085422;28;20204;-71
2023/04/11 10:03:09;;;;;;;6.90;3.73;;;;;12.60;96444.00;;;;5087123;28;20230;-74
2023/04/11 10:05:59;;;;;;;5.80;3.43;;;;;13.20;96453.00;;;;5085771;28;20214;-74
2023/04/11 10:08:48;;;;;;;6.03;3.93;;;;;13.20;96445.00;;;;5083772;28;20206;-73
2023/04/11 10:11:41;;;;;;;4.70;3.83;;;;;12.90;96446.00;;;;5083011;28;20764;-72
2023/04/11 10:14:43;;;;;;;6.10;4.17;;;;;12.90;96438.00;;;;5080173;28;20203;-73
2023/04/11 10:17:32;;;;;;;8.00;3.90;;;;;13.40;96428.00;;;;5082166;28;20205;-73
2023/04/11 10:20:43;;;;;;;4.67;4.20;;;;;13.90;96400.00;;;;5089082;28;20210;-73
2023/04/11 10:24:07;;;;;;;5.27;3.37;;;;;14.00;96385.00;;;;5080845;28;20221;-72
2023/04/11 10:26:59;;;;;;;4.37;3.47;;;;;14.30;96369.00;;;;5077190;28;20207;-74
2023/04/11 10:29:50;;;;;;;5.40;4.00;;;;;14.70;96364.00;;;;5079476;28;20195;-74
2023/04/11 10:32:40;;;;;;;3.83;3.43;;;;;14.40;96358.00;;;;5085601;28;20702;-74
2023/04/11 10:35:29;;;;;;;7.50;5.53;;;;;15.20;96375.00;;;;5078752;28;20203;-73
2023/04/11 10:38:45;;;;;;;5.03;4.37;;;;;15.70;96387.00;;;;5088443;28;20203;-74
2023/04/11 10:41:35;;;;;;;6.17;4.70;;;;;15.90;96387.00;;;;5087542;28;20617;-74
2023/04/11 10:44:25;;;;;;;4.43;4.03;;;;;16.20;96371.00;;;;5086102;28;20203;-74
2023/04/11 10:47:18;;;;;;;7.10;4.10;;;;;16.60;96382.00;;;;5079109;28;20212;-74
2023/04/11 10:50:33;;;;;;;9.77;5.97;;;;;15.80;96368.00;;;;5079942;28;20323;-75
2023/04/11 10:53:36;;;;;;;8.17;5.10;;;;;15.90;96372.00;;;;5081906;28;20557;-72
2023/04/11 10:56:56;;;;;;;11.23;6.13;;;;;16.00;96367.00;;;;5078864;28;20205;-72
2023/04/11 11:00:00;;;;;;;8.43;5.43;;;;;15.50;96368.00;;;;5079526;28;20694;-73
2023/04/11 11:02:50;;;;;;;6.73;4.13;;;;;14.80;96377.00;;;;5080124;28;20219;-75
2023/04/11 11:05:39;;;;;;;7.47;4.70;;;;;15.00;96363.00;;;;5078294;28;20222;-71
2023/04/11 11:08:29;;;;;;;11.97;4.13;;;;;15.60;96353.00;;;;5076402;28;20710;-70
2023/04/11 11:11:19;;;;;;;9.93;6.60;;;;;15.40;96362.00;;;;5067261;28;20796;-73
2023/04/11 11:14:08;;;;;;;5.07;4.10;;;;;16.00;96354.00;;;;5077056;28;20701;-72
2023/04/11 11:16:59;;;;;;;4.20;3.80;;;;;16.00;96360.00;;;;5083933;28;20207;-73
2023/04/11 11:19:49;;;;;;;21.27;11.40;;;;;16.60;96360.00;;;;5079736;28;20207;-73
2023/04/11 11:22:38;;;;;;;15.07;9.50;;;;;16.20;96355.00;;;;5082799;28;20219;-74
2023/04/11 11:25:27;;;;;;;7.37;5.17;;;;;16.90;96343.00;;;;5078424;28;20263;-69
2023/04/11 11:28:16;;;;;;;9.80;4.50;;;;;17.40;96325.00;;;;5069064;28;20223;-69
2023/04/11 11:31:06;;;;;;;5.73;3.93;;;15.00;92.20;18.00;96325.00;;;;5068384;28;20293;-69
2023/04/11 11:33:56;;;;;;;5.83;4.00;;;15.20;92.40;17.50;96329.00;;;;5082407;28;20235;-70
2023/04/11 11:36:46;;;;;;;11.10;6.60;;;15.40;91.20;17.20;96324.00;;;;5081901;28;20199;-71
2023/04/11 11:39:35;;;;;;;9.47;5.63;;;15.40;90.50;16.80;96337.00;;;;5077288;28;20192;-71
2023/04/11 11:42:24;;;;;;;6.00;4.30;;;15.30;90.10;16.90;96324.00;;;;5080034;28;20257;-71
2023/04/11 11:45:17;;;;;;;8.97;4.73;;;15.20;90.70;17.40;96318.00;;;;5081975;28;20210;-71
2023/04/11 11:48:06;;;;;;;6.90;5.07;;;15.20;91.30;17.80;96317.00;;;;5081266;28;20620;-71
2023/04/11 11:50:59;;;;;;;3.73;3.33;;;15.30;91.00;17.90;96324.00;;;;5085114;28;20219;-73
2023/04/11 11:54:03;;;;;;;3.30;2.73;;;15.50;91.00;17.70;96326.00;;;;5080734;28;20823;-72
2023/04/11 11:56:52;;;;;;;5.50;3.10;;;15.60;90.00;17.40;96331.00;;;;5085801;28;20203;-72
2023/04/11 11:59:41;;;;;;;5.07;3.30;;;15.60;87.70;17.10;96336.00;;;;5086918;28;20325;-71
2023/04/11 12:02:30;;;;;;;6.90;3.57;;;15.50;87.30;17.00;96326.00;;;;5076246;28;20231;-71
2023/04/11 12:05:19;;;;;;;5.33;3.13;;;15.30;86.30;17.40;96318.00;;;;5072168;28;20205;-71
2023/04/11 12:08:09;;;;;;;7.27;2.97;;;15.30;87.50;17.10;96328.00;;;;5083831;28;20670;-72
2023/04/11 12:10:57;;;;;;;3.23;2.53;;;15.20;86.00;17.00;96326.00;;;;5085761;28;20227;-73
2023/04/11 12:13:53;;;;;;;4.83;2.83;;;15.20;85.40;17.20;96316.00;;;;5082158;28;20222;-73
2023/04/11 12:16:42;;;;;;;3.07;2.70;;;15.20;86.20;17.40;96301.00;;;;5084599;28;20190;-73
2023/04/11 12:19:31;;;;;;;4.23;3.40;;;15.20;85.90;18.00;96300.00;;;;5082323;28;20199;-73
2023/04/11 12:22:19;;;;;;;2.63;2.43;;;15.40;86.20;18.60;96301.00;;;;5081036;28;20645;-73
2023/04/11 12:25:12;;;;;;;3.63;2.37;;;15.70;86.70;18.70;96313.00;;;;5081484;28;20211;-73
2023/04/11 12:28:01;;;;;;;2.70;2.07;;;15.90;84.80;18.40;96296.00;;;;5079110;28;20200;-74
2023/04/11 12:30:49;;;;;;;4.00;2.80;;;16.10;82.50;18.50;96305.00;;;;5085056;28;20230;-73
2023/04/11 12:33:38;;;;;;;5.00;3.07;;;16.30;79.70;18.80;96310.00;;;;5082092;28;20210;-73
2023/04/11 12:36:27;;;;;;;3.63;2.50;;;16.30;79.60;18.70;96312.00;;;;5085098;28;20681;-73
2023/04/11 12:39:16;;;;;;;4.60;2.50;;;16.50;81.40;19.60;96311.00;;;;5084118;28;20218;-71
2023/04/11 12:42:06;;;;;;;4.27;2.53;;;16.70;81.10;19.60;96315.00;;;;5083036;28;20218;-71
2023/04/11 12:44:55;;;;;;;3.63;2.50;;;16.90;80.00;19.40;96302.00;;;;5085583;28;20230;-72
2023/04/11 12:47:45;;;;;;;5.20;2.10;;;17.00;79.50;19.00;96303.00;;;;5078685;28;20206;-72
2023/04/11 12:50:34;;;;;;;4.03;3.20;;;17.10;77.60;19.80;96294.00;;;;5082619;28;20204;-71
2023/04/11 12:53:22;;;;;;;4.50;2.10;;;17.20;78.00;20.00;96290.00;;;;5085516;28;20761;-71
2023/04/11 12:56:12;;;;;;;2.83;2.23;;;17.40;76.30;19.80;96316.00;;;;5083209;28;20211;-70
2023/04/11 12:59:02;;;;;;;4.20;2.57;;;17.60;75.10;19.80;96303.00;;;;5084217;28;20200;-73
2023/04/11 13:01:51;;;;;;;5.60;2.70;;;17.50;74.40;20.00;96301.00;;;;5085388;28;20215;-72
2023/04/11 13:04:40;;;;;;;3.20;2.70;;;17.60;75.00;20.20;96299.00;;;;5085908;28;20227;-73
2023/04/11 13:07:29;;;;;;;2.57;1.80;;;17.80;74.30;19.40;96295.00;;;;5086673;28;20207;-74
2023/04/11 13:10:17;;;;;;;2.30;2.10;;;17.70;71.70;19.30;96289.00;;;;5087529;28;20207;-76
2023/04/11 13:13:06;;;;;;;2.00;1.80;;;17.50;72.40;19.40;96293.00;;;;5086737;28;20240;-73
2023/04/11 13:16:00;;;;;;;2.40;1.80;;;17.40;72.10;19.80;96305.00;;;;5075750;28;20239;-72
2023/04/11 13:18:50;;;;;;;3.03;2.07;;;17.40;73.70;19.60;96281.00;;;;5081100;28;20222;-73
2023/04/11 13:21:38;;;;;;;2.80;1.87;;;17.50;73.00;19.60;96280.00;;;;5088870;28;20270;-72
2023/04/11 13:24:27;;;;;;;2.33;2.13;;;17.50;72.00;20.30;96278.00;;;;5079428;28;20223;-72
2023/04/11 13:27:16;;;;;;;3.33;2.53;;;17.60;73.50;20.30;96280.00;;;;5081513;28;20282;-71
2023/04/11 13:30:06;;;;;;;2.87;2.13;;;17.80;72.70;20.40;96276.00;;;;5078381;28;20213;-75
2023/04/11 13:32:56;;;;;;;3.30;2.13;;;17.90;72.80;20.20;96275.00;;;;5083803;28;20203;-72
2023/04/11 13:35:45;;;;;;;3.20;2.17;;;17.90;71.40;20.20;96277.00;;;;5082350;28;20204;-73
2023/04/11 13:38:34;;;;;;;2.43;1.90;;;18.00;71.10;20.10;96280.00;;;;5082675;28;20200;-72
2023/04/11 13:41:23;;;;;;;5.73;2.60;;;18.10;70.00;19.90;96280.00;;;;5086167;28;20332;-74